Time;durP1;ratioP1;P1;durP2;ratioP2;P2;SDS_P1;SDS_P2;PMS_P1;PMS_P2;Temp;Humidity;BMP_temperature;BMP_pressure;BME280_temperature;BME280_humidity;BME280_pressure;Samples;Min_cycle;Max_cycle;Signal;HPM_P1;HPM_P2
2023/05/16 00:01:34;;;;;;;4.40;3.88;;;;;;;12.92;54.49;101016.19;5061999;28;20060;-68
2023/05/16 00:04:02;;;;;;;5.18;3.80;;;;;;;12.91;54.77;101013.59;5062069;28;20075;-69
2023/05/16 00:06:29;;;;;;;7.15;3.97;;;;;;;12.90;54.92;101012.75;5061151;28;20056;-69
2023/05/16 00:08:56;;;;;;;4.75;3.25;;;;;;;12.90;54.61;101002.25;5058927;28;20052;-68
2023/05/16 00:11:23;;;;;;;10.10;3.70;;;;;;;12.88;54.94;100995.31;5065191;28;20043;-68
2023/05/16 00:13:50;;;;;;;3.50;3.17;;;;;;;12.89;54.83;100994.41;5063066;28;20144;-69
2023/05/16 00:16:20;;;;;;;4.40;3.97;;;;;;;12.88;55.07;100995.31;5062574;28;20052;-68
2023/05/16 00:18:47;;;;;;;6.85;4.40;;;;;;;12.88;55.05;100983.06;5058939;28;20056;-68
2023/05/16 00:21:14;;;;;;;6.45;3.75;;;;;;;12.87;55.12;100976.13;5062475;28;20055;-68
2023/05/16 00:23:41;;;;;;;5.65;3.72;;;;;;;12.86;55.37;100961.25;5062603;28;22208;-68
2023/05/16 00:26:07;;;;;;;6.70;3.47;;;;;;;12.86;55.22;100957.78;5057935;28;20040;-68
2023/05/16 00:28:34;;;;;;;4.40;4.03;;;;;;;12.86;55.17;100957.78;5062137;28;20053;-68
2023/05/16 00:31:01;;;;;;;4.35;3.38;;;;;;;12.85;55.07;100954.31;5062498;28;20080;-68
2023/05/16 00:33:29;;;;;;;4.22;3.25;;;;;;;12.85;55.16;100950.84;5062683;28;20056;-68
2023/05/16 00:35:56;;;;;;;6.97;3.92;;;;;;;12.83;55.23;100938.63;5064622;28;20052;-69
2023/05/16 00:38:24;;;;;;;4.72;3.10;;;;;;;12.82;55.46;100942.13;5062750;28;20044;-68
2023/05/16 00:40:51;;;;;;;3.92;3.00;;;;;;;12.80;55.40;100938.69;5065061;28;20089;-69
2023/05/16 00:43:18;;;;;;;4.43;3.63;;;;;;;12.81;55.67;100935.19;5063377;28;20040;-68
2023/05/16 00:45:45;;;;;;;7.28;3.60;;;;;;;12.80;55.71;100932.59;5065017;28;20060;-68
2023/05/16 00:48:14;;;;;;;5.63;3.70;;;;;;;12.78;55.72;100930.03;5066948;28;20586;-68
2023/05/16 00:50:42;;;;;;;6.75;3.90;;;;;;;12.81;55.98;100931.72;5058182;28;20130;-68
2023/05/16 00:53:10;;;;;;;5.57;3.65;;;;;;;12.80;55.74;100925.59;5063895;28;20040;-68
2023/05/16 00:55:38;;;;;;;5.07;3.53;;;;;;;12.80;56.20;100917.72;5055645;28;20052;-68
2023/05/16 00:58:05;;;;;;;7.30;3.80;;;;;;;12.81;56.26;100921.22;5066499;28;20049;-68
2023/05/16 01:00:32;;;;;;;7.95;3.55;;;;;;;12.81;55.99;100919.47;5065879;28;20056;-68
2023/05/16 01:02:59;;;;;;;7.47;3.38;;;;;;;12.81;55.92;100906.34;5064382;28;20048;-68
2023/05/16 01:05:26;;;;;;;5.25;3.85;;;;;;;12.81;55.81;100906.34;5062594;28;20381;-68
2023/05/16 01:07:55;;;;;;;6.07;3.10;;;;;;;12.83;56.01;100907.19;5060671;28;20052;-68
2023/05/16 01:10:22;;;;;;;7.15;4.05;;;;;;;12.85;56.00;100908.88;5063234;28;20055;-69
2023/05/16 01:12:58;;;;;;;5.40;4.43;;;;;;;12.84;55.65;100902.78;5060817;28;20045;-68
2023/05/16 01:15:30;;;;;;;5.70;3.60;;;;;;;12.82;55.67;100897.56;5059757;28;20051;-68
2023/05/16 01:18:02;;;;;;;9.70;4.03;;;;;;;12.83;55.71;100883.59;5058412;28;20140;-68
2023/05/16 01:20:38;;;;;;;5.60;3.97;;;;;;;12.83;55.84;100880.97;5063276;28;20052;-68
2023/05/16 01:23:17;;;;;;;7.45;3.40;;;;;;;12.83;55.58;100878.34;5063183;28;20541;-68
2023/05/16 01:26:09;;;;;;;7.00;4.18;;;;;;;12.82;55.47;100866.13;5062636;28;20075;-68
2023/05/16 01:28:36;;;;;;;6.43;3.65;;;;;;;12.84;55.58;100863.47;5061669;28;20064;-68
2023/05/16 01:31:03;;;;;;;7.05;3.38;;;;;;;12.84;55.82;100860.84;5061420;28;20044;-69
2023/05/16 01:33:30;;;;;;;8.90;3.60;;;;;;;12.85;55.40;100852.06;5065337;28;20049;-68
2023/05/16 01:36:04;;;;;;;6.47;3.72;;;;;;;12.85;55.58;100841.59;5061119;28;20081;-68
2023/05/16 01:38:40;;;;;;;6.05;3.75;;;;;;;12.86;55.54;100845.06;5063647;28;20044;-68
2023/05/16 01:41:16;;;;;;;6.95;3.75;;;;;;;12.86;55.71;100845.06;5061354;28;20071;-69
2023/05/16 01:43:46;;;;;;;3.55;3.15;;;;;;;12.87;55.49;100841.56;5057703;28;20044;-68
2023/05/16 01:46:16;;;;;;;4.05;3.17;;;;;;;12.87;55.38;100838.94;5061593;28;20048;-68
2023/05/16 01:48:51;;;;;;;4.40;3.05;;;;;;;12.89;55.14;100843.22;5065101;28;20040;-68
2023/05/16 01:51:21;;;;;;;3.67;3.38;;;;;;;12.90;55.43;100844.94;5062530;28;20492;-68
2023/05/16 01:53:50;;;;;;;6.53;3.60;;;;;;;12.91;55.39;100845.81;5057316;28;20219;-68
2023/05/16 01:56:20;;;;;;;3.42;3.15;;;;;;;12.92;55.46;100844.88;5061562;28;20055;-68
2023/05/16 01:58:50;;;;;;;4.60;3.58;;;;;;;12.92;55.90;100837.03;5061175;28;20064;-68
2023/05/16 02:01:16;;;;;;;3.65;3.35;;;;;;;12.93;55.69;100834.38;5061092;28;20048;-68
2023/05/16 02:03:43;;;;;;;12.30;4.22;;;;;;;12.96;55.74;100830.81;5062801;28;20044;-69
2023/05/16 02:06:10;;;;;;;7.10;3.72;;;;;;;12.96;55.80;100829.03;5064537;28;20725;-68
2023/05/16 02:08:37;;;;;;;5.18;4.03;;;;;;;12.98;55.67;100836.88;5061267;28;20048;-68
2023/05/16 02:11:04;;;;;;;4.90;3.53;;;;;;;12.99;56.04;100854.31;5057248;28;20051;-68
2023/05/16 02:13:32;;;;;;;6.18;4.10;;;;;;;12.98;56.32;100848.22;5055152;28;20060;-69
2023/05/16 02:15:59;;;;;;;5.15;3.78;;;;;;;12.99;56.13;100836.81;5063848;28;20139;-69
2023/05/16 02:18:27;;;;;;;4.60;3.67;;;;;;;13.00;56.35;100829.81;5058667;28;20493;-68
2023/05/16 02:20:54;;;;;;;6.40;3.15;;;;;;;13.00;56.45;100820.19;5056905;28;20044;-68
2023/05/16 02:23:21;;;;;;;4.97;3.75;;;;;;;13.00;56.69;100824.56;5058364;28;20105;-68
2023/05/16 02:25:48;;;;;;;5.38;3.85;;;;;;;13.01;56.38;100828.94;5065367;28;20048;-68
2023/05/16 02:28:14;;;;;;;4.38;3.03;;;;;;;13.01;56.82;100811.44;5062262;28;20052;-68
2023/05/16 02:30:43;;;;;;;3.60;3.30;;;;;;;13.02;56.75;100810.50;5062260;28;20044;-68
2023/05/16 02:33:11;;;;;;;6.55;3.35;;;;;;;13.03;57.18;100793.00;5021570;28;20064;-68
2023/05/16 02:35:37;;;;;;;8.18;3.10;;;;;;;13.05;56.82;100791.22;5058666;28;20048;-68
2023/05/16 02:38:04;;;;;;;5.75;3.40;;;;;;;13.06;56.73;100782.44;5057873;28;20045;-68
2023/05/16 02:40:31;;;;;;;12.40;4.18;;;;;;;13.06;56.92;100787.69;5062754;28;20056;-69
2023/05/16 02:42:58;;;;;;;4.80;3.22;;;;;;;13.01;56.77;100771.25;5063581;28;20044;-68
2023/05/16 02:45:25;;;;;;;9.20;3.55;;;;;;;13.08;56.90;100770.16;5058026;28;20631;-69
2023/05/16 02:47:53;;;;;;;4.90;3.50;;;;;;;13.10;56.83;100770.97;5058996;28;20122;-68
2023/05/16 02:50:20;;;;;;;9.35;4.07;;;;;;;13.10;56.99;100770.97;5062457;28;20055;-68
2023/05/16 02:52:48;;;;;;;7.13;3.67;;;;;;;13.11;56.73;100754.31;5052430;28;20453;-68
2023/05/16 02:55:15;;;;;;;3.75;3.45;;;;;;;13.14;56.75;100759.47;5060404;28;20040;-68
2023/05/16 02:57:41;;;;;;;5.00;3.38;;;;;;;13.16;56.71;100759.44;5059329;28;20048;-68
2023/05/16 03:00:10;;;;;;;5.90;4.07;;;;;;;13.16;56.56;100757.69;5061843;28;20448;-68
2023/05/16 03:02:37;;;;;;;9.82;3.72;;;;;;;13.16;56.72;100767.31;5047044;28;20157;-68
2023/05/16 03:05:06;;;;;;;10.73;4.22;;;;;;;13.17;56.79;100779.50;5059994;28;20060;-69
2023/05/16 03:07:33;;;;;;;4.18;3.65;;;;;;;13.14;57.22;100780.44;5061211;28;20052;-68
2023/05/16 03:10:00;;;;;;;4.40;3.33;;;;;;;13.18;57.39;100787.34;5057984;28;20048;-69
2023/05/16 03:12:27;;;;;;;9.68;3.78;;;;;;;13.18;57.54;100787.34;5058126;28;20584;-68
2023/05/16 03:14:53;;;;;;;6.63;3.65;;;;;;;13.21;57.50;100792.50;5060792;28;20056;-68
2023/05/16 03:17:20;;;;;;;3.85;3.55;;;;;;;13.21;57.63;100784.63;5058762;28;20048;-68
2023/05/16 03:19:47;;;;;;;3.78;3.47;;;;;;;13.22;57.51;100799.47;5061523;28;20051;-68
2023/05/16 03:22:16;;;;;;;6.47;3.40;;;;;;;13.23;57.55;100788.09;5062945;28;20044;-69
2023/05/16 03:24:43;;;;;;;5.40;3.30;;;;;;;13.25;57.88;100796.78;5059810;28;20049;-68
2023/05/16 03:27:10;;;;;;;5.20;3.13;;;;;;;13.26;57.95;100785.41;5061938;28;20094;-68
2023/05/16 03:29:37;;;;;;;4.80;3.03;;;;;;;13.26;58.38;100782.78;5063061;28;20048;-68
2023/05/16 03:32:05;;;;;;;7.75;3.33;;;;;;;13.26;58.60;100785.41;5062213;28;20052;-68
2023/05/16 03:34:32;;;;;;;3.83;3.45;;;;;;;13.26;58.42;100777.53;5064428;28;20044;-68
2023/05/16 03:36:59;;;;;;;6.75;3.60;;;;;;;13.28;58.46;100780.94;5068634;28;20048;-68
2023/05/16 03:39:27;;;;;;;7.03;4.80;;;;;;;13.28;59.06;100786.19;5065709;28;20182;-68
2023/05/16 03:41:55;;;;;;;4.88;3.15;;;;;;;13.28;59.06;100783.56;5069837;28;20045;-68
2023/05/16 03:44:22;;;;;;;5.05;3.95;;;;;;;13.30;58.79;100780.91;5066733;28;20574;-68
2023/05/16 03:46:51;;;;;;;6.85;4.07;;;;;;;13.32;59.35;100773.88;5061201;28;20052;-68
2023/05/16 03:49:19;;;;;;;9.20;2.80;;;;;;;13.34;59.33;100779.06;5061438;28;20051;-68
2023/05/16 03:51:46;;;;;;;5.65;3.40;;;;;;;13.34;59.67;100768.56;5066135;28;20048;-68
2023/05/16 03:54:14;;;;;;;5.50;3.80;;;;;;;13.37;59.72;100763.22;5066831;28;20044;-68
2023/05/16 03:56:42;;;;;;;4.57;3.60;;;;;;;13.38;59.84;100762.31;5069380;28;20044;-68
2023/05/16 03:59:08;;;;;;;3.95;3.55;;;;;;;13.38;59.54;100767.56;5061750;28;20048;-69
2023/05/16 04:01:35;;;;;;;8.73;3.45;;;;;;;13.39;59.24;100774.53;5068979;28;20045;-68
2023/05/16 04:04:02;;;;;;;4.43;3.88;;;;;;;13.40;59.49;100776.25;5069448;28;20842;-68
2023/05/16 04:06:29;;;;;;;4.68;3.72;;;;;;;13.41;59.29;100777.97;5064198;28;20049;-68
2023/05/16 04:08:56;;;;;;;3.53;3.22;;;;;;;13.42;59.37;100769.19;5065076;28;20052;-69
2023/05/16 04:11:23;;;;;;;3.47;2.50;;;;;;;13.41;59.09;100764.84;5063227;28;20523;-70
2023/05/16 04:13:52;;;;;;;5.43;3.80;;;;;;;13.40;59.06;100757.88;5062744;28;20048;-69
2023/05/16 04:16:19;;;;;;;4.30;3.15;;;;;;;13.40;59.15;100765.75;5069482;28;20070;-70
2023/05/16 04:18:46;;;;;;;6.10;3.22;;;;;;;13.39;59.24;100756.16;5064863;28;20393;-69
2023/05/16 04:21:14;;;;;;;7.75;4.20;;;;;;;13.40;59.46;100755.25;5064497;28;20056;-70
2023/05/16 04:23:40;;;;;;;3.65;3.08;;;;;;;13.39;59.30;100754.41;5069812;28;20045;-70
2023/05/16 04:26:07;;;;;;;5.20;2.97;;;;;;;13.39;59.63;100746.53;5064995;28;20048;-69
2023/05/16 04:28:35;;;;;;;4.95;3.47;;;;;;;13.42;59.69;100756.91;5070578;28;20132;-69
2023/05/16 04:31:03;;;;;;;6.93;3.42;;;;;;;13.41;59.83;100743.88;5062597;28;20040;-69
2023/05/16 04:33:30;;;;;;;5.22;3.35;;;;;;;13.44;59.75;100749.00;5062310;28;20508;-69
2023/05/16 04:35:58;;;;;;;6.43;3.55;;;;;;;13.43;60.00;100745.53;5062675;28;20049;-69
2023/05/16 04:38:24;;;;;;;9.52;3.47;;;;;;;13.46;59.95;100740.19;5066809;28;20049;-69
2023/05/16 04:40:51;;;;;;;5.07;3.65;;;;;;;13.47;60.19;100747.16;5064580;28;20048;-69
2023/05/16 04:43:18;;;;;;;4.35;3.05;;;;;;;13.48;60.52;100740.97;5066725;28;20089;-69
2023/05/16 04:45:45;;;;;;;3.92;3.38;;;;;;;13.49;60.72;100739.25;5057444;28;20048;-69
2023/05/16 04:48:14;;;;;;;4.85;3.25;;;;;;;13.49;60.90;100724.34;5062306;28;20829;-70
2023/05/16 04:50:41;;;;;;;5.60;3.70;;;;;;;13.48;61.26;100713.88;5056169;28;20807;-70
2023/05/16 04:53:08;;;;;;;7.10;4.18;;;;;;;13.48;61.76;100709.50;5058945;28;20045;-69
2023/05/16 04:55:34;;;;;;;5.20;3.35;;;;;;;13.48;61.40;100706.88;5059785;28;20056;-70
2023/05/16 04:58:01;;;;;;;4.63;4.22;;;;;;;13.50;61.73;100704.22;5062411;28;20098;-69
2023/05/16 05:00:28;;;;;;;9.27;4.38;;;;;;;13.50;62.08;100698.97;5062527;28;20048;-69
2023/05/16 05:02:55;;;;;;;4.43;3.67;;;;;;;13.51;62.03;100700.66;5059886;28;20036;-70
2023/05/16 05:05:23;;;;;;;6.05;5.13;;;;;;;13.50;61.99;100698.97;5063433;28;20056;-70
2023/05/16 05:07:50;;;;;;;5.40;3.88;;;;;;;13.50;62.06;100685.84;5060923;28;20052;-70
2023/05/16 05:10:17;;;;;;;4.32;3.92;;;;;;;13.49;62.15;100681.50;5060628;28;20041;-70
2023/05/16 05:12:44;;;;;;;7.18;3.95;;;;;;;13.49;62.12;100681.50;5058145;28;20094;-70
2023/05/16 05:15:11;;;;;;;5.25;4.00;;;;;;;13.48;61.97;100679.78;5059341;28;20056;-70
2023/05/16 05:17:37;;;;;;;9.00;4.53;;;;;;;13.49;61.96;100684.13;5056298;28;20419;-70
2023/05/16 05:20:07;;;;;;;5.95;4.38;;;;;;;13.47;62.27;100667.56;5062821;28;20077;-70
2023/05/16 05:22:35;;;;;;;8.20;5.10;;;;;;;13.45;62.45;100661.50;5059528;28;20598;-70
2023/05/16 05:25:02;;;;;;;5.47;4.63;;;;;;;13.46;62.51;100661.47;5056970;28;20056;-70
2023/05/16 05:27:30;;;;;;;5.95;4.35;;;;;;;13.46;62.67;100660.59;5063945;28;20106;-70
2023/05/16 05:29:57;;;;;;;4.28;3.88;;;;;;;13.46;62.81;100668.47;5060261;28;20040;-70
2023/05/16 05:32:23;;;;;;;5.72;4.97;;;;;;;13.45;62.69;100664.13;5060123;28;20048;-70
2023/05/16 05:34:51;;;;;;;6.60;4.53;;;;;;;13.45;62.63;100661.50;5062225;28;20428;-70
2023/05/16 05:37:18;;;;;;;6.00;4.00;;;;;;;13.45;62.67;100664.13;5065069;28;20068;-70
2023/05/16 05:39:46;;;;;;;6.57;4.47;;;;;;;13.43;63.46;100661.56;5062355;28;20060;-70
2023/05/16 05:42:13;;;;;;;5.45;4.25;;;;;;;13.42;63.27;100649.34;5056501;28;20052;-70
2023/05/16 05:44:40;;;;;;;8.02;5.07;;;;;;;13.40;63.32;100651.16;5062536;28;20040;-70
2023/05/16 05:47:07;;;;;;;5.60;5.10;;;;;;;13.43;63.49;100655.44;5064375;28;20041;-71
2023/05/16 05:49:34;;;;;;;5.53;4.72;;;;;;;13.43;63.66;100658.94;5027899;28;20755;-70
2023/05/16 05:52:01;;;;;;;7.15;4.93;;;;;;;13.43;63.74;100655.44;5065190;28;20060;-70
2023/05/16 05:54:29;;;;;;;6.40;5.72;;;;;;;13.41;63.95;100644.16;5055294;28;20060;-70
2023/05/16 05:56:57;;;;;;;7.18;5.60;;;;;;;13.43;63.99;100650.19;5055966;28;20731;-70
2023/05/16 05:59:24;;;;;;;8.82;5.10;;;;;;;13.42;63.77;100643.25;5055302;28;20049;-70
2023/05/16 06:01:51;;;;;;;7.43;4.68;;;;;;;13.41;63.93;100646.78;5059328;28;20075;-71
2023/05/16 06:04:18;;;;;;;6.00;5.38;;;;;;;13.38;64.15;100644.25;5062974;28;20044;-71
2023/05/16 06:06:45;;;;;;;5.05;4.45;;;;;;;13.38;64.38;100639.88;5056264;28;20056;-70
2023/05/16 06:09:12;;;;;;;7.05;4.80;;;;;;;13.37;64.41;100638.13;5057891;28;20110;-71
2023/05/16 06:11:40;;;;;;;7.65;4.63;;;;;;;13.39;64.68;100640.72;5058212;28;20121;-70
2023/05/16 06:14:08;;;;;;;6.07;5.32;;;;;;;13.36;65.06;100633.81;5059841;28;20843;-70
2023/05/16 06:16:35;;;;;;;6.25;4.55;;;;;;;13.35;65.26;100637.34;5060189;28;20056;-70
2023/05/16 06:19:01;;;;;;;8.05;5.03;;;;;;;13.32;65.60;100626.06;5057286;28;20053;-70
2023/05/16 06:21:28;;;;;;;7.00;4.63;;;;;;;13.31;65.58;100626.97;5062510;28;20049;-69
2023/05/16 06:23:55;;;;;;;6.97;4.85;;;;;;;13.30;65.91;100618.25;5060705;28;20386;-70
2023/05/16 06:26:22;;;;;;;5.60;5.10;;;;;;;13.31;66.17;100621.75;5061506;28;20451;-70
2023/05/16 06:28:49;;;;;;;6.78;4.80;;;;;;;13.30;66.33;100612.16;5059453;28;20114;-69
2023/05/16 06:31:17;;;;;;;5.15;3.90;;;;;;;13.30;66.00;100612.16;5065328;28;20049;-69
2023/05/16 06:33:44;;;;;;;6.78;4.65;;;;;;;13.32;66.31;100618.19;5063646;28;20068;-69
2023/05/16 06:36:11;;;;;;;5.68;5.15;;;;;;;13.32;66.51;100613.84;5057926;28;20040;-70
2023/05/16 06:38:38;;;;;;;6.97;4.55;;;;;;;13.33;66.68;100619.94;5062327;28;20044;-69
2023/05/16 06:41:05;;;;;;;7.00;4.93;;;;;;;13.32;66.83;100623.44;5060149;28;20759;-69
2023/05/16 06:43:31;;;;;;;8.70;5.43;;;;;;;13.30;67.02;100627.91;5062868;28;20045;-69
2023/05/16 06:45:58;;;;;;;7.82;5.53;;;;;;;13.27;67.29;100616.59;5012663;28;20053;-69
2023/05/16 06:48:27;;;;;;;12.40;6.18;;;;;;;13.28;67.48;100615.66;5057571;28;20064;-69
2023/05/16 06:50:54;;;;;;;8.07;5.60;;;;;;;13.26;67.51;100617.50;5056912;28;20055;-69
2023/05/16 06:53:20;;;;;;;7.00;4.50;;;;;;;13.26;67.34;100617.50;5057628;28;20045;-70
2023/05/16 06:55:48;;;;;;;6.90;4.95;;;;;;;13.25;67.25;100610.53;5057896;28;20048;-69
2023/05/16 06:58:14;;;;;;;5.03;4.68;;;;;;;13.24;67.37;100608.78;5057903;28;20052;-70
2023/05/16 07:00:42;;;;;;;7.25;5.13;;;;;;;13.26;67.66;100611.38;5058175;28;20041;-69
2023/05/16 07:03:09;;;;;;;11.10;5.05;;;;;;;13.26;67.83;100601.78;5051672;28;20052;-69
2023/05/16 07:05:38;;;;;;;8.35;5.75;;;;;;;13.26;68.07;100604.41;5059757;28;20103;-69
2023/05/16 07:08:05;;;;;;;6.68;5.15;;;;;;;13.26;68.14;100604.41;5061948;28;20063;-69
2023/05/16 07:10:32;;;;;;;7.05;5.35;;;;;;;13.25;68.09;100597.41;5057770;28;20041;-70
2023/05/16 07:13:00;;;;;;;6.93;4.90;;;;;;;13.26;68.26;100599.16;5062135;28;20489;-69
2023/05/16 07:15:27;;;;;;;6.15;5.30;;;;;;;13.26;68.07;100595.66;5057066;28;20053;-69
2023/05/16 07:17:54;;;;;;;7.30;5.15;;;;;;;13.27;68.47;100594.75;5061247;28;20044;-69
2023/05/16 07:20:20;;;;;;;9.07;5.55;;;;;;;13.26;68.55;100604.41;5057111;28;20045;-69
2023/05/16 07:22:49;;;;;;;4.55;4.15;;;;;;;13.26;68.54;100591.28;5062338;28;20064;-69
2023/05/16 07:25:16;;;;;;;5.95;4.85;;;;;;;13.24;68.58;100587.81;5055911;28;20041;-69
2023/05/16 07:27:43;;;;;;;6.07;4.65;;;;;;;13.31;68.69;100590.25;5058163;28;20044;-69
2023/05/16 07:30:12;;;;;;;6.88;4.75;;;;;;;13.33;68.77;100585.81;5059842;28;20071;-69
2023/05/16 07:32:39;;;;;;;10.73;4.60;;;;;;;13.35;68.54;100586.63;5058774;28;20040;-69
2023/05/16 07:35:06;;;;;;;6.28;4.38;;;;;;;13.37;68.77;100584.81;5055146;28;20044;-69
2023/05/16 07:37:33;;;;;;;6.60;4.90;;;;;;;13.37;68.94;100583.03;5059828;28;20071;-69
2023/05/16 07:40:02;;;;;;;7.55;4.15;;;;;;;13.40;69.31;100574.22;5062132;28;20048;-69
2023/05/16 07:42:29;;;;;;;6.78;4.90;;;;;;;13.40;68.94;100569.81;5062857;28;20489;-69
2023/05/16 07:44:56;;;;;;;4.35;3.88;;;;;;;13.45;68.93;100572.28;5060013;28;20045;-69
2023/05/16 07:47:23;;;;;;;9.30;4.72;;;;;;;13.43;69.04;100569.75;5058546;28;20447;-69
2023/05/16 07:49:50;;;;;;;6.18;5.03;;;;;;;13.46;69.01;100560.88;5060530;28;20048;-70
2023/05/16 07:52:16;;;;;;;6.40;4.53;;;;;;;13.45;69.27;100560.03;5055244;28;20044;-69
2023/05/16 07:54:43;;;;;;;5.95;4.68;;;;;;;13.48;69.44;100565.16;5052210;28;20041;-68
2023/05/16 07:57:11;;;;;;;9.10;6.45;;;;;;;13.48;69.36;100552.03;5059972;28;20416;-69
2023/05/16 07:59:38;;;;;;;6.25;4.38;;;;;;;13.50;69.27;100549.38;5057359;28;20051;-69
2023/05/16 08:02:05;;;;;;;6.97;4.97;;;;;;;13.48;69.54;100541.56;5058554;28;20075;-69
2023/05/16 08:04:32;;;;;;;8.15;4.85;;;;;;;13.52;69.45;100542.31;5060840;28;20513;-69
2023/05/16 08:06:59;;;;;;;9.77;4.50;;;;;;;13.54;69.07;100550.97;5059449;28;20052;-69
2023/05/16 08:09:26;;;;;;;4.88;4.40;;;;;;;13.54;69.48;100532.59;5056844;28;20547;-69
2023/05/16 08:11:53;;;;;;;5.35;4.85;;;;;;;13.54;69.34;100537.00;5061539;28;20045;-69
2023/05/16 08:14:21;;;;;;;5.70;4.28;;;;;;;13.55;69.44;100534.34;5059100;28;20051;-69
2023/05/16 08:16:48;;;;;;;5.63;3.92;;;;;;;13.55;69.31;100531.72;5057501;28;20040;-69
2023/05/16 08:19:15;;;;;;;5.15;4.28;;;;;;;13.56;69.46;100536.06;5058137;28;20044;-69
2023/05/16 08:21:42;;;;;;;7.10;4.13;;;;;;;13.57;69.46;100521.16;5060774;28;20051;-69
2023/05/16 08:24:10;;;;;;;5.03;4.30;;;;;;;13.59;69.51;100525.44;5067044;28;20578;-69
2023/05/16 08:26:37;;;;;;;4.43;3.55;;;;;;;13.64;69.58;100525.28;5062674;28;20106;-69
2023/05/16 08:29:04;;;;;;;4.90;3.95;;;;;;;13.65;69.40;100525.22;5045062;28;20055;-69
2023/05/16 08:31:32;;;;;;;3.63;3.15;;;;;;;13.63;69.36;100521.81;5039163;28;20060;-69
2023/05/16 08:34:00;;;;;;;5.70;3.70;;;;;;;13.66;69.70;100516.47;5046538;28;20172;-69
2023/05/16 08:36:27;;;;;;;4.07;3.65;;;;;;;13.70;69.49;100523.28;5038961;28;20118;-69
2023/05/16 08:38:54;;;;;;;5.03;4.07;;;;;;;13.72;69.47;100523.25;5044799;28;20049;-69
2023/05/16 08:41:21;;;;;;;3.80;3.55;;;;;;;13.74;69.70;100513.53;5041250;28;20387;-69
2023/05/16 08:43:48;;;;;;;4.07;3.72;;;;;;;13.76;69.56;100516.13;5043017;28;20087;-69
2023/05/16 08:46:18;;;;;;;3.67;3.38;;;;;;;13.77;69.36;100515.19;5041931;28;20057;-69
2023/05/16 08:48:49;;;;;;;5.57;3.08;;;;;;;13.77;69.52;100512.56;5046648;28;20052;-69
2023/05/16 08:51:18;;;;;;;6.25;3.63;;;;;;;13.76;69.49;100506.47;5043269;28;20083;-69
2023/05/16 08:53:50;;;;;;;3.15;2.85;;;;;;;13.79;69.61;100514.22;5040798;28;20051;-69
2023/05/16 08:56:18;;;;;;;3.65;3.35;;;;;;;13.79;69.48;100516.00;5043762;28;20052;-69
2023/05/16 08:58:46;;;;;;;2.88;2.47;;;;;;;13.78;69.33;100504.66;5043180;28;20068;-69
2023/05/16 09:01:13;;;;;;;2.28;2.13;;;;;;;13.79;69.43;100516.00;5041871;28;20131;-69
2023/05/16 09:03:40;;;;;;;3.70;2.40;;;;;;;13.79;69.41;100500.25;5043387;28;20040;-69
2023/05/16 09:06:09;;;;;;;2.75;2.00;;;;;;;13.80;69.22;100499.34;5045720;28;20501;-69
2023/05/16 09:08:36;;;;;;;6.22;1.70;;;;;;;13.81;69.25;100496.66;5039981;28;20460;-69
2023/05/16 09:11:04;;;;;;;3.97;1.88;;;;;;;13.84;69.20;100493.09;5044425;28;20041;-69
2023/05/16 09:13:30;;;;;;;2.13;1.77;;;;;;;13.84;69.07;100485.19;5044661;28;20151;-70
2023/05/16 09:16:11;;;;;;;1.77;1.67;;;;;;;13.84;69.17;100486.06;5037933;28;20049;-69
2023/05/16 09:18:38;;;;;;;3.58;1.95;;;;;;;13.85;68.97;100485.13;5044049;28;20127;-69
2023/05/16 09:21:06;;;;;;;5.63;2.13;;;;;;;13.87;69.49;100485.94;5044672;28;20056;-70
2023/05/16 09:23:35;;;;;;;2.05;1.80;;;;;;;13.87;69.39;100479.84;5044097;28;20061;-69
2023/05/16 09:26:02;;;;;;;2.90;1.88;;;;;;;13.90;69.07;100482.34;5041633;28;20132;-69
2023/05/16 09:28:29;;;;;;;2.40;1.90;;;;;;;13.89;69.22;100480.66;5056510;28;20066;-69
2023/05/16 09:30:58;;;;;;;2.38;2.17;;;;;;;13.87;69.17;100477.22;5063285;28;20055;-69
2023/05/16 09:33:28;;;;;;;1.85;1.70;;;;;;;13.89;69.03;100478.03;5059783;28;20075;-70
2023/05/16 09:35:59;;;;;;;1.50;1.40;;;;;;;13.89;69.25;100475.41;5053854;28;20091;-69
2023/05/16 09:38:27;;;;;;;3.03;1.27;;;;;;;13.87;69.28;100479.84;5058264;28;20048;-69
2023/05/16 09:40:55;;;;;;;2.65;1.67;;;;;;;13.86;69.37;100470.22;5057630;28;20080;-69
2023/05/16 09:43:25;;;;;;;2.78;1.05;;;;;;;13.82;69.45;100464.25;5059321;28;20048;-71
2023/05/16 09:45:53;;;;;;;1.00;0.90;;;;;;;13.86;69.42;100470.22;5056881;28;20049;-69
2023/05/16 09:48:22;;;;;;;0.80;0.75;;;;;;;13.87;69.70;100461.47;5060821;28;20781;-69
2023/05/16 09:50:52;;;;;;;0.68;0.63;;;;;;;13.84;69.78;100457.16;5056484;28;20089;-69
2023/05/16 09:53:26;;;;;;;1.30;1.20;;;;;;;13.87;69.67;100450.97;5058184;28;20045;-69
2023/05/16 09:56:02;;;;;;;2.75;0.50;;;;;;;13.88;69.49;100455.28;5054185;28;20083;-70
2023/05/16 09:58:30;;;;;;;1.05;0.82;;;;;;;13.84;69.65;100449.28;5060891;28;20041;-69
2023/05/16 10:00:57;;;;;;;0.73;0.57;;;;;;;13.83;69.86;100449.34;5058006;28;20072;-70
2023/05/16 10:03:25;;;;;;;2.58;1.23;;;;;;;13.81;70.09;100446.78;5049341;28;20587;-69
2023/05/16 10:05:52;;;;;;;1.02;0.70;;;;;;;13.83;70.10;100449.34;5060168;28;20059;-69
2023/05/16 10:08:21;;;;;;;1.00;0.80;;;;;;;13.85;69.84;100444.91;5054972;28;20063;-69
2023/05/16 10:10:51;;;;;;;1.77;0.80;;;;;;;13.87;69.78;100443.94;5057116;28;20556;-69
2023/05/16 10:13:21;;;;;;;0.80;0.80;;;;;;;13.88;69.92;100444.78;5057301;28;20172;-69
2023/05/16 10:15:49;;;;;;;2.67;1.00;;;;;;;13.86;69.94;100444.84;5056909;28;20458;-69
2023/05/16 10:18:17;;;;;;;1.25;1.10;;;;;;;13.86;70.20;100442.22;5062707;28;20049;-69
2023/05/16 10:20:47;;;;;;;2.65;1.85;;;;;;;13.87;70.08;100443.06;5058032;28;20044;-69
2023/05/16 10:23:18;;;;;;;2.47;2.30;;;;;;;13.88;70.29;100442.16;5059955;28;20055;-69
2023/05/16 10:25:47;;;;;;;2.20;1.80;;;;;;;13.90;69.88;100435.94;5052335;28;20074;-69
2023/05/16 10:28:15;;;;;;;3.67;2.35;;;;;;;13.94;70.17;100431.41;5040819;28;20058;-69
2023/05/16 10:30:44;;;;;;;2.78;2.42;;;;;;;13.93;69.95;100425.31;5042575;28;20049;-69
2023/05/16 10:33:13;;;;;;;4.18;3.15;;;;;;;13.98;69.85;100438.28;5041610;28;20486;-69
2023/05/16 10:35:40;;;;;;;6.65;2.35;;;;;;;14.00;69.69;100433.81;5041237;28;20548;-69
2023/05/16 10:38:09;;;;;;;6.50;3.17;;;;;;;14.03;69.64;100431.09;5035185;28;20049;-70
2023/05/16 10:40:38;;;;;;;4.18;2.95;;;;;;;14.06;69.61;100430.97;5044165;28;20509;-70
2023/05/16 10:43:06;;;;;;;5.30;2.80;;;;;;;14.07;69.47;100429.19;5041775;28;20048;-69
2023/05/16 10:45:33;;;;;;;3.22;2.85;;;;;;;14.08;69.16;100417.75;5036122;28;20149;-70
2023/05/16 10:48:05;;;;;;;7.10;3.17;;;;;;;14.10;69.67;100422.03;5044594;28;20048;-70
2023/05/16 10:50:36;;;;;;;4.32;3.13;;;;;;;14.13;69.45;100411.41;5041288;28;20052;-70
2023/05/16 10:53:30;;;;;;;7.60;4.78;;;;;;;14.15;69.22;100417.47;5037063;28;20051;-70
2023/05/16 10:56:08;;;;;;;4.68;3.53;;;;;;;14.17;69.20;100417.41;5034130;28;20493;-71
2023/05/16 10:58:43;;;;;;;7.50;3.63;;;;;;;14.18;69.07;100413.88;5039629;28;20128;-70
2023/05/16 11:01:17;;;;;;;8.63;5.23;;;;;;;14.19;69.14;100415.56;5039009;28;20049;-70
2023/05/16 11:04:12;;;;;;;9.02;4.82;;;;;;;14.20;68.81;100419.06;5038216;28;20049;-70
2023/05/16 11:06:58;;;;;;;5.90;4.90;;;;;;;14.12;69.08;100403.63;4994038;28;20041;-70
2023/05/16 11:09:27;;;;;;;7.38;5.00;;;;;;;14.20;69.13;100416.44;5037877;28;20472;-69
2023/05/16 11:11:57;;;;;;;10.43;5.85;;;;;;;14.19;69.18;100420.81;5037161;28;20097;-69
2023/05/16 11:14:25;;;;;;;7.10;4.93;;;;;;;14.21;69.06;100423.41;5040419;28;20045;-69
2023/05/16 11:16:55;;;;;;;9.30;5.82;;;;;;;14.15;68.75;100412.22;5036509;28;20745;-69
2023/05/16 11:19:35;;;;;;;8.45;6.07;;;;;;;14.22;68.87;100414.59;5037592;28;20045;-70
2023/05/16 11:22:09;;;;;;;8.65;5.57;;;;;;;14.23;69.10;100414.56;5040061;28;20049;-70
2023/05/16 11:24:38;;;;;;;8.43;5.68;;;;;;;14.23;68.95;100413.69;5040457;28;20053;-70
2023/05/16 11:27:06;;;;;;;11.05;5.93;;;;;;;14.22;69.07;100415.44;5043676;28;20056;-69
2023/05/16 11:29:34;;;;;;;10.70;5.88;;;;;;;14.23;68.98;100417.19;5052809;28;20045;-70